sensor_id;sensor_type;location;lat;lon;timestamp;temperature;humidity
79571;DHT22;69034;49.444;7.758;2023-04-25T00:03:00;13.40;49.80
79571;DHT22;69034;49.444;7.758;2023-04-25T00:07:01;13.30;50.00
79571;DHT22;69034;49.444;7.758;2023-04-25T00:11:02;13.30;50.10
79571;DHT22;69034;49.444;7.758;2023-04-25T00:15:03;13.20;50.30
79571;DHT22;69034;49.444;7.758;2023-04-25T00:19:03;13.20;50.20
79571;DHT22;69034;49.444;7.758;2023-04-25T00:23:05;13.10;50.30
79571;DHT22;69034;49.444;7.758;2023-04-25T00:27:06;13.10;50.40
79571;DHT22;69034;49.444;7.758;2023-04-25T00:31:07;13.10;50.50
79571;DHT22;69034;49.444;7.758;2023-04-25T00:35:09;13.10;50.60
79571;DHT22;69034;49.444;7.758;2023-04-25T00:39:10;13.00;50.70
79571;DHT22;69034;49.444;7.758;2023-04-25T00:43:10;13.00;50.80
79571;DHT22;69034;49.444;7.758;2023-04-25T00:47:11;13.00;50.80
79571;DHT22;69034;49.444;7.758;2023-04-25T00:51:22;12.90;50.90
79571;DHT22;69034;49.444;7.758;2023-04-25T00:55:22;12.90;50.90
79571;DHT22;69034;49.444;7.758;2023-04-25T00:59:23;13.00;51.10
79571;DHT22;69034;49.444;7.758;2023-04-25T01:03:24;13.10;51.00
79571;DHT22;69034;49.444;7.758;2023-04-25T01:07:25;13.20;50.90
79571;DHT22;69034;49.444;7.758;2023-04-25T01:11:26;13.30;50.70
79571;DHT22;69034;49.444;7.758;2023-04-25T01:15:27;13.40;50.70
79571;DHT22;69034;49.444;7.758;2023-04-25T01:19:29;13.40;50.70
79571;DHT22;69034;49.444;7.758;2023-04-25T01:23:30;13.50;50.80
79571;DHT22;69034;49.444;7.758;2023-04-25T01:27:33;13.50;50.80
79571;DHT22;69034;49.444;7.758;2023-04-25T01:31:34;13.40;50.90
79571;DHT22;69034;49.444;7.758;2023-04-25T01:35:35;13.30;51.20
79571;DHT22;69034;49.444;7.758;2023-04-25T01:39:36;13.10;51.40
79571;DHT22;69034;49.444;7.758;2023-04-25T01:43:36;13.00;51.70
79571;DHT22;69034;49.444;7.758;2023-04-25T01:47:38;12.90;51.80
79571;DHT22;69034;49.444;7.758;2023-04-25T01:51:40;12.80;51.90
79571;DHT22;69034;49.444;7.758;2023-04-25T01:55:41;12.80;51.90
79571;DHT22;69034;49.444;7.758;2023-04-25T01:59:43;12.70;52.00
79571;DHT22;69034;49.444;7.758;2023-04-25T02:03:43;12.60;52.10
79571;DHT22;69034;49.444;7.758;2023-04-25T02:07:44;12.60;52.20
79571;DHT22;69034;49.444;7.758;2023-04-25T02:11:44;12.50;52.20
79571;DHT22;69034;49.444;7.758;2023-04-25T02:15:45;12.50;52.30
79571;DHT22;69034;49.444;7.758;2023-04-25T02:19:46;12.40;52.40
79571;DHT22;69034;49.444;7.758;2023-04-25T02:23:46;12.40;52.50
79571;DHT22;69034;49.444;7.758;2023-04-25T02:27:49;12.30;52.60
79571;DHT22;69034;49.444;7.758;2023-04-25T02:31:50;12.20;52.70
79571;DHT22;69034;49.444;7.758;2023-04-25T02:35:51;12.20;52.70
79571;DHT22;69034;49.444;7.758;2023-04-25T02:39:51;12.10;52.80
79571;DHT22;69034;49.444;7.758;2023-04-25T02:43:52;12.00;52.90
79571;DHT22;69034;49.444;7.758;2023-04-25T02:47:53;12.00;53.00
79571;DHT22;69034;49.444;7.758;2023-04-25T02:51:53;11.90;53.10
79571;DHT22;69034;49.444;7.758;2023-04-25T02:55:54;11.90;53.00
79571;DHT22;69034;49.444;7.758;2023-04-25T02:59:55;11.80;53.00
79571;DHT22;69034;49.444;7.758;2023-04-25T03:03:55;11.80;53.10
79571;DHT22;69034;49.444;7.758;2023-04-25T03:07:56;11.80;53.30
79571;DHT22;69034;49.444;7.758;2023-04-25T03:11:56;11.70;53.40
79571;DHT22;69034;49.444;7.758;2023-04-25T03:20:54;11.80;53.50
79571;DHT22;69034;49.444;7.758;2023-04-25T03:24:55;12.00;53.10
79571;DHT22;69034;49.444;7.758;2023-04-25T03:28:55;12.20;52.90
79571;DHT22;69034;49.444;7.758;2023-04-25T03:32:56;12.40;52.60
79571;DHT22;69034;49.444;7.758;2023-04-25T03:36:57;12.50;52.40
79571;DHT22;69034;49.444;7.758;2023-04-25T03:40:57;12.60;52.40
79571;DHT22;69034;49.444;7.758;2023-04-25T03:44:58;12.70;52.20
79571;DHT22;69034;49.444;7.758;2023-04-25T03:48:59;12.60;52.20
79571;DHT22;69034;49.444;7.758;2023-04-25T03:52:59;12.60;52.20
79571;DHT22;69034;49.444;7.758;2023-04-25T03:57:00;12.40;52.30
79571;DHT22;69034;49.444;7.758;2023-04-25T04:01:01;12.30;52.50
79571;DHT22;69034;49.444;7.758;2023-04-25T04:05:04;12.20;52.60
79571;DHT22;69034;49.444;7.758;2023-04-25T04:09:06;12.20;52.70
79571;DHT22;69034;49.444;7.758;2023-04-25T04:13:10;12.10;52.60
79571;DHT22;69034;49.444;7.758;2023-04-25T04:17:10;12.10;52.60
79571;DHT22;69034;49.444;7.758;2023-04-25T04:21:11;12.10;52.50
79571;DHT22;69034;49.444;7.758;2023-04-25T04:25:11;12.10;52.70
79571;DHT22;69034;49.444;7.758;2023-04-25T04:29:12;12.10;52.80
79571;DHT22;69034;49.444;7.758;2023-04-25T04:33:21;12.10;52.70
79571;DHT22;69034;49.444;7.758;2023-04-25T04:37:23;12.20;52.70
79571;DHT22;69034;49.444;7.758;2023-04-25T04:41:24;12.20;52.60
79571;DHT22;69034;49.444;7.758;2023-04-25T04:45:25;12.30;52.60
79571;DHT22;69034;49.444;7.758;2023-04-25T04:49:25;12.30;52.60
79571;DHT22;69034;49.444;7.758;2023-04-25T04:53:27;12.40;52.50
79571;DHT22;69034;49.444;7.758;2023-04-25T04:57:28;12.40;52.50
79571;DHT22;69034;49.444;7.758;2023-04-25T05:01:29;12.30;52.60
79571;DHT22;69034;49.444;7.758;2023-04-25T05:05:32;12.30;52.80
79571;DHT22;69034;49.444;7.758;2023-04-25T05:09:33;12.30;52.70
79571;DHT22;69034;49.444;7.758;2023-04-25T05:13:34;12.30;52.80
79571;DHT22;69034;49.444;7.758;2023-04-25T05:17:34;12.30;53.00
79571;DHT22;69034;49.444;7.758;2023-04-25T05:21:35;12.30;53.10
79571;DHT22;69034;49.444;7.758;2023-04-25T05:25:36;12.30;53.10
79571;DHT22;69034;49.444;7.758;2023-04-25T05:29:36;12.30;53.20
79571;DHT22;69034;49.444;7.758;2023-04-25T05:33:37;12.30;53.30
79571;DHT22;69034;49.444;7.758;2023-04-25T05:37:38;12.20;53.40
79571;DHT22;69034;49.444;7.758;2023-04-25T05:41:38;12.20;53.50
79571;DHT22;69034;49.444;7.758;2023-04-25T05:45:40;12.30;53.60
79571;DHT22;69034;49.444;7.758;2023-04-25T05:49:41;12.50;53.20
79571;DHT22;69034;49.444;7.758;2023-04-25T05:53:41;12.70;53.10
79571;DHT22;69034;49.444;7.758;2023-04-25T05:57:42;12.90;53.00
79571;DHT22;69034;49.444;7.758;2023-04-25T06:01:45;13.00;53.00
79571;DHT22;69034;49.444;7.758;2023-04-25T06:05:47;13.10;52.80
79571;DHT22;69034;49.444;7.758;2023-04-25T06:09:48;13.30;52.70
79571;DHT22;69034;49.444;7.758;2023-04-25T06:13:49;13.50;52.50
79571;DHT22;69034;49.444;7.758;2023-04-25T06:17:50;13.60;52.20
79571;DHT22;69034;49.444;7.758;2023-04-25T06:21:50;13.50;52.40
79571;DHT22;69034;49.444;7.758;2023-04-25T06:25:51;13.40;52.50
79571;DHT22;69034;49.444;7.758;2023-04-25T06:29:52;13.40;52.60
79571;DHT22;69034;49.444;7.758;2023-04-25T06:33:53;13.30;52.70
79571;DHT22;69034;49.444;7.758;2023-04-25T06:37:55;13.30;52.80
79571;DHT22;69034;49.444;7.758;2023-04-25T06:41:55;13.30;53.00
79571;DHT22;69034;49.444;7.758;2023-04-25T06:45:56;13.20;53.00
79571;DHT22;69034;49.444;7.758;2023-04-25T06:49:56;13.30;53.00
79571;DHT22;69034;49.444;7.758;2023-04-25T06:53:57;13.20;53.00
79571;DHT22;69034;49.444;7.758;2023-04-25T06:57:58;13.20;53.10
79571;DHT22;69034;49.444;7.758;2023-04-25T07:01:58;13.30;53.20
79571;DHT22;69034;49.444;7.758;2023-04-25T07:05:59;13.30;53.20
79571;DHT22;69034;49.444;7.758;2023-04-25T07:10:00;13.30;53.30
79571;DHT22;69034;49.444;7.758;2023-04-25T07:14:01;13.40;53.20
79571;DHT22;69034;49.444;7.758;2023-04-25T07:18:01;13.60;53.00
79571;DHT22;69034;49.444;7.758;2023-04-25T07:22:02;13.80;52.80
79571;DHT22;69034;49.444;7.758;2023-04-25T07:26:03;14.20;52.50
79571;DHT22;69034;49.444;7.758;2023-04-25T07:30:04;14.30;52.40
79571;DHT22;69034;49.444;7.758;2023-04-25T07:34:05;14.40;52.40
79571;DHT22;69034;49.444;7.758;2023-04-25T07:38:05;14.70;52.00
79571;DHT22;69034;49.444;7.758;2023-04-25T07:42:07;15.00;51.60
79571;DHT22;69034;49.444;7.758;2023-04-25T07:46:10;15.10;51.50
79571;DHT22;69034;49.444;7.758;2023-04-25T07:50:11;15.10;51.80
79571;DHT22;69034;49.444;7.758;2023-04-25T07:54:15;15.40;51.30
79571;DHT22;69034;49.444;7.758;2023-04-25T07:58:16;15.70;51.00
79571;DHT22;69034;49.444;7.758;2023-04-25T08:02:21;15.90;51.00
79571;DHT22;69034;49.444;7.758;2023-04-25T08:06:22;16.10;51.00
79571;DHT22;69034;49.444;7.758;2023-04-25T08:10:22;16.20;50.90
79571;DHT22;69034;49.444;7.758;2023-04-25T08:14:23;15.90;51.40
79571;DHT22;69034;49.444;7.758;2023-04-25T08:18:24;15.60;51.80
79571;DHT22;69034;49.444;7.758;2023-04-25T08:22:24;15.30;52.00
79571;DHT22;69034;49.444;7.758;2023-04-25T08:26:25;15.10;52.20
79571;DHT22;69034;49.444;7.758;2023-04-25T08:30:26;15.00;52.30
79571;DHT22;69034;49.444;7.758;2023-04-25T08:34:27;14.90;52.30
79571;DHT22;69034;49.444;7.758;2023-04-25T08:38:27;14.90;52.40
79571;DHT22;69034;49.444;7.758;2023-04-25T08:42:29;15.00;52.30
79571;DHT22;69034;49.444;7.758;2023-04-25T08:46:31;15.10;52.10
79571;DHT22;69034;49.444;7.758;2023-04-25T08:50:33;15.10;51.90
79571;DHT22;69034;49.444;7.758;2023-04-25T08:54:35;15.10;51.80
79571;DHT22;69034;49.444;7.758;2023-04-25T08:58:36;15.00;51.90
79571;DHT22;69034;49.444;7.758;2023-04-25T09:02:42;14.90;52.10
79571;DHT22;69034;49.444;7.758;2023-04-25T09:06:43;14.90;52.10
79571;DHT22;69034;49.444;7.758;2023-04-25T09:10:44;14.80;52.10
79571;DHT22;69034;49.444;7.758;2023-04-25T09:15:05;14.80;52.10
79571;DHT22;69034;49.444;7.758;2023-04-25T09:19:06;14.90;52.00
79571;DHT22;69034;49.444;7.758;2023-04-25T09:23:06;15.10;51.60
79571;DHT22;69034;49.444;7.758;2023-04-25T09:27:10;15.40;51.20
79571;DHT22;69034;49.444;7.758;2023-04-25T09:31:11;15.80;50.70
79571;DHT22;69034;49.444;7.758;2023-04-25T09:35:24;16.00;50.50
79571;DHT22;69034;49.444;7.758;2023-04-25T09:39:28;16.00;50.60
79571;DHT22;69034;49.444;7.758;2023-04-25T09:43:29;16.10;50.40
79571;DHT22;69034;49.444;7.758;2023-04-25T09:47:29;16.30;50.20
79571;DHT22;69034;49.444;7.758;2023-04-25T09:51:30;16.50;50.00
79571;DHT22;69034;49.444;7.758;2023-04-25T09:55:32;16.90;49.50
79571;DHT22;69034;49.444;7.758;2023-04-25T09:59:35;17.70;48.40
79571;DHT22;69034;49.444;7.758;2023-04-25T10:03:38;18.60;47.60
79571;DHT22;69034;49.444;7.758;2023-04-25T10:07:40;19.40;46.80
79571;DHT22;69034;49.444;7.758;2023-04-25T10:11:41;19.80;46.70
79571;DHT22;69034;49.444;7.758;2023-04-25T10:15:43;20.00;46.50
79571;DHT22;69034;49.444;7.758;2023-04-25T10:19:43;20.10;46.50
79571;DHT22;69034;49.444;7.758;2023-04-25T10:23:44;19.90;46.70
79571;DHT22;69034;49.444;7.758;2023-04-25T10:27:45;20.50;45.80
79571;DHT22;69034;49.444;7.758;2023-04-25T10:31:46;21.60;44.60
79571;DHT22;69034;49.444;7.758;2023-04-25T10:35:49;24.50;41.50
79571;DHT22;69034;49.444;7.758;2023-04-25T10:39:50;25.60;40.50
79571;DHT22;69034;49.444;7.758;2023-04-25T10:43:59;26.30;40.00
79571;DHT22;69034;49.444;7.758;2023-04-25T10:48:01;26.80;39.20
79571;DHT22;69034;49.444;7.758;2023-04-25T10:56:21;28.40;36.90
79571;DHT22;69034;49.444;7.758;2023-04-25T11:00:23;28.10;37.20
79571;DHT22;69034;49.444;7.758;2023-04-25T11:04:32;27.50;37.20
79571;DHT22;69034;49.444;7.758;2023-04-25T11:08:49;29.50;34.30
79571;DHT22;69034;49.444;7.758;2023-04-25T11:12:50;32.80;30.90
79571;DHT22;69034;49.444;7.758;2023-04-25T11:16:57;31.30;32.80
79571;DHT22;69034;49.444;7.758;2023-04-25T11:20:58;30.70;32.90
79571;DHT22;69034;49.444;7.758;2023-04-25T11:25:04;30.30;32.20
79571;DHT22;69034;49.444;7.758;2023-04-25T11:29:05;29.80;31.50
79571;DHT22;69034;49.444;7.758;2023-04-25T11:33:06;29.00;32.50
79571;DHT22;69034;49.444;7.758;2023-04-25T11:37:06;28.50;32.30
79571;DHT22;69034;49.444;7.758;2023-04-25T11:41:07;28.60;32.10
79571;DHT22;69034;49.444;7.758;2023-04-25T11:45:08;28.80;31.40
79571;DHT22;69034;49.444;7.758;2023-04-25T11:49:09;29.40;31.30
79571;DHT22;69034;49.444;7.758;2023-04-25T11:53:10;29.70;30.40
79571;DHT22;69034;49.444;7.758;2023-04-25T11:57:11;29.40;31.50
79571;DHT22;69034;49.444;7.758;2023-04-25T12:01:12;31.20;30.20
79571;DHT22;69034;49.444;7.758;2023-04-25T12:05:29;32.10;28.60
79571;DHT22;69034;49.444;7.758;2023-04-25T12:09:32;30.90;29.30
79571;DHT22;69034;49.444;7.758;2023-04-25T12:13:33;31.00;29.10
79571;DHT22;69034;49.444;7.758;2023-04-25T12:17:34;30.00;29.70
79571;DHT22;69034;49.444;7.758;2023-04-25T12:21:34;29.00;30.50
79571;DHT22;69034;49.444;7.758;2023-04-25T12:25:43;28.50;31.10
79571;DHT22;69034;49.444;7.758;2023-04-25T12:29:52;28.20;31.40
79571;DHT22;69034;49.444;7.758;2023-04-25T12:33:53;28.00;31.50
79571;DHT22;69034;49.444;7.758;2023-04-25T12:37:54;27.80;31.90
79571;DHT22;69034;49.444;7.758;2023-04-25T12:41:54;27.70;31.90
79571;DHT22;69034;49.444;7.758;2023-04-25T12:45:55;27.60;31.70
79571;DHT22;69034;49.444;7.758;2023-04-25T12:49:56;27.40;31.10
79571;DHT22;69034;49.444;7.758;2023-04-25T12:53:57;27.30;31.30
79571;DHT22;69034;49.444;7.758;2023-04-25T12:57:57;27.90;31.60
79571;DHT22;69034;49.444;7.758;2023-04-25T13:01:58;28.60;31.00
79571;DHT22;69034;49.444;7.758;2023-04-25T13:05:59;29.30;30.30
79571;DHT22;69034;49.444;7.758;2023-04-25T13:09:59;31.70;28.00
79571;DHT22;69034;49.444;7.758;2023-04-25T13:14:01;30.40;29.20
79571;DHT22;69034;49.444;7.758;2023-04-25T13:18:03;29.70;29.30
79571;DHT22;69034;49.444;7.758;2023-04-25T13:22:06;29.80;28.90
79571;DHT22;69034;49.444;7.758;2023-04-25T13:26:06;29.30;29.40
79571;DHT22;69034;49.444;7.758;2023-04-25T13:30:07;28.90;29.90
79571;DHT22;69034;49.444;7.758;2023-04-25T13:34:08;28.30;30.50
79571;DHT22;69034;49.444;7.758;2023-04-25T13:38:08;27.80;30.20
79571;DHT22;69034;49.444;7.758;2023-04-25T13:42:09;27.50;30.00
79571;DHT22;69034;49.444;7.758;2023-04-25T13:46:10;27.10;30.50
79571;DHT22;69034;49.444;7.758;2023-04-25T13:50:12;26.60;30.70
79571;DHT22;69034;49.444;7.758;2023-04-25T13:54:13;26.40;30.60
79571;DHT22;69034;49.444;7.758;2023-04-25T13:58:14;26.30;30.70
79571;DHT22;69034;49.444;7.758;2023-04-25T14:02:15;25.80;30.90
79571;DHT22;69034;49.444;7.758;2023-04-25T14:06:17;25.20;31.40
79571;DHT22;69034;49.444;7.758;2023-04-25T14:10:23;24.60;32.00
79571;DHT22;69034;49.444;7.758;2023-04-25T14:14:23;23.80;32.70
79571;DHT22;69034;49.444;7.758;2023-04-25T14:18:24;23.40;33.30
79571;DHT22;69034;49.444;7.758;2023-04-25T14:22:25;23.20;33.50
79571;DHT22;69034;49.444;7.758;2023-04-25T14:26:26;23.50;33.30
79571;DHT22;69034;49.444;7.758;2023-04-25T14:30:27;25.40;31.40
79571;DHT22;69034;49.444;7.758;2023-04-25T14:34:28;26.80;31.60
79571;DHT22;69034;49.444;7.758;2023-04-25T14:38:28;31.90;26.40
79571;DHT22;69034;49.444;7.758;2023-04-25T14:42:29;34.70;25.50
79571;DHT22;69034;49.444;7.758;2023-04-25T14:46:30;35.70;24.70
79571;DHT22;69034;49.444;7.758;2023-04-25T14:50:31;33.40;26.30
79571;DHT22;69034;49.444;7.758;2023-04-25T14:54:31;31.50;27.60
79571;DHT22;69034;49.444;7.758;2023-04-25T14:58:32;30.00;28.40
79571;DHT22;69034;49.444;7.758;2023-04-25T15:02:33;28.70;29.00
79571;DHT22;69034;49.444;7.758;2023-04-25T15:06:34;27.70;29.40
79571;DHT22;69034;49.444;7.758;2023-04-25T15:10:35;27.00;29.60
79571;DHT22;69034;49.444;7.758;2023-04-25T15:14:36;26.40;29.70
79571;DHT22;69034;49.444;7.758;2023-04-25T15:18:37;26.00;30.10
79571;DHT22;69034;49.444;7.758;2023-04-25T15:22:39;25.50;30.00
79571;DHT22;69034;49.444;7.758;2023-04-25T15:26:40;25.00;29.70
79571;DHT22;69034;49.444;7.758;2023-04-25T15:30:41;24.60;29.80
79571;DHT22;69034;49.444;7.758;2023-04-25T15:34:42;24.30;30.00
79571;DHT22;69034;49.444;7.758;2023-04-25T15:38:42;23.90;30.50
79571;DHT22;69034;49.444;7.758;2023-04-25T15:42:44;23.50;31.00
79571;DHT22;69034;49.444;7.758;2023-04-25T15:46:47;23.20;31.40
79571;DHT22;69034;49.444;7.758;2023-04-25T15:50:47;22.90;31.40
79571;DHT22;69034;49.444;7.758;2023-04-25T15:54:48;22.70;31.80
79571;DHT22;69034;49.444;7.758;2023-04-25T15:58:49;22.40;32.20
79571;DHT22;69034;49.444;7.758;2023-04-25T16:02:50;22.10;32.40
79571;DHT22;69034;49.444;7.758;2023-04-25T16:06:50;21.80;32.70
79571;DHT22;69034;49.444;7.758;2023-04-25T16:10:51;21.30;32.60
79571;DHT22;69034;49.444;7.758;2023-04-25T16:14:52;20.70;33.10
79571;DHT22;69034;49.444;7.758;2023-04-25T16:18:52;20.50;33.00
79571;DHT22;69034;49.444;7.758;2023-04-25T16:22:53;20.40;33.00
79571;DHT22;69034;49.444;7.758;2023-04-25T16:26:54;20.10;33.20
79571;DHT22;69034;49.444;7.758;2023-04-25T16:30:54;19.90;33.40
79571;DHT22;69034;49.444;7.758;2023-04-25T16:34:55;19.70;33.50
79571;DHT22;69034;49.444;7.758;2023-04-25T16:38:56;19.40;33.80
79571;DHT22;69034;49.444;7.758;2023-04-25T16:42:56;19.20;33.90
79571;DHT22;69034;49.444;7.758;2023-04-25T16:46:57;19.10;34.30
79571;DHT22;69034;49.444;7.758;2023-04-25T16:50:58;18.90;34.50
79571;DHT22;69034;49.444;7.758;2023-04-25T16:54:58;18.80;34.60
79571;DHT22;69034;49.444;7.758;2023-04-25T16:58:59;18.70;34.80
79571;DHT22;69034;49.444;7.758;2023-04-25T17:02:59;18.60;35.10
79571;DHT22;69034;49.444;7.758;2023-04-25T17:07:00;18.50;35.10
79571;DHT22;69034;49.444;7.758;2023-04-25T17:11:01;18.40;35.30
79571;DHT22;69034;49.444;7.758;2023-04-25T17:15:03;18.40;35.50
79571;DHT22;69034;49.444;7.758;2023-04-25T17:19:04;18.30;35.60
79571;DHT22;69034;49.444;7.758;2023-04-25T17:23:05;18.30;35.70
79571;DHT22;69034;49.444;7.758;2023-04-25T17:27:06;18.30;35.60
79571;DHT22;69034;49.444;7.758;2023-04-25T17:31:08;18.30;35.70
79571;DHT22;69034;49.444;7.758;2023-04-25T17:35:08;18.20;35.90
79571;DHT22;69034;49.444;7.758;2023-04-25T17:39:09;18.10;35.90
79571;DHT22;69034;49.444;7.758;2023-04-25T17:43:10;18.10;35.80
79571;DHT22;69034;49.444;7.758;2023-04-25T17:47:11;18.00;35.90
79571;DHT22;69034;49.444;7.758;2023-04-25T17:51:11;17.90;35.90
79571;DHT22;69034;49.444;7.758;2023-04-25T17:55:12;17.70;36.20
79571;DHT22;69034;49.444;7.758;2023-04-25T17:59:13;17.50;36.30
79571;DHT22;69034;49.444;7.758;2023-04-25T18:03:14;17.30;36.30
79571;DHT22;69034;49.444;7.758;2023-04-25T18:07:15;17.10;36.50
79571;DHT22;69034;49.444;7.758;2023-04-25T18:11:16;17.00;36.70
79571;DHT22;69034;49.444;7.758;2023-04-25T18:15:17;16.80;36.70
79571;DHT22;69034;49.444;7.758;2023-04-25T18:19:17;16.60;36.80
79571;DHT22;69034;49.444;7.758;2023-04-25T18:23:21;16.50;36.90
79571;DHT22;69034;49.444;7.758;2023-04-25T18:27:21;16.30;36.90
79571;DHT22;69034;49.444;7.758;2023-04-25T18:31:22;16.20;37.20
79571;DHT22;69034;49.444;7.758;2023-04-25T18:35:24;16.00;37.30
79571;DHT22;69034;49.444;7.758;2023-04-25T18:39:26;15.90;37.40
79571;DHT22;69034;49.444;7.758;2023-04-25T18:43:27;15.80;37.40
79571;DHT22;69034;49.444;7.758;2023-04-25T18:47:28;15.60;37.60
79571;DHT22;69034;49.444;7.758;2023-04-25T18:51:29;15.50;37.60
79571;DHT22;69034;49.444;7.758;2023-04-25T18:55:30;15.30;37.70
79571;DHT22;69034;49.444;7.758;2023-04-25T18:59:32;15.20;37.80
79571;DHT22;69034;49.444;7.758;2023-04-25T19:03:33;15.10;37.80
79571;DHT22;69034;49.444;7.758;2023-04-25T19:07:35;15.10;39.20
79571;DHT22;69034;49.444;7.758;2023-04-25T19:11:37;15.50;41.10
79571;DHT22;69034;49.444;7.758;2023-04-25T19:15:37;15.70;40.10
79571;DHT22;69034;49.444;7.758;2023-04-25T19:19:38;15.50;39.70
79571;DHT22;69034;49.444;7.758;2023-04-25T19:23:39;15.20;39.80
79571;DHT22;69034;49.444;7.758;2023-04-25T19:27:41;15.10;39.80
79571;DHT22;69034;49.444;7.758;2023-04-25T19:31:43;15.10;39.60
79571;DHT22;69034;49.444;7.758;2023-04-25T19:35:44;15.10;39.40
79571;DHT22;69034;49.444;7.758;2023-04-25T19:39:45;15.10;39.40
79571;DHT22;69034;49.444;7.758;2023-04-25T19:43:47;15.10;39.30
79571;DHT22;69034;49.444;7.758;2023-04-25T19:47:48;15.10;39.20
79571;DHT22;69034;49.444;7.758;2023-04-25T19:51:49;15.10;39.30
79571;DHT22;69034;49.444;7.758;2023-04-25T19:55:50;15.10;39.30
79571;DHT22;69034;49.444;7.758;2023-04-25T19:59:50;15.00;39.30
79571;DHT22;69034;49.444;7.758;2023-04-25T20:03:51;14.90;39.40
79571;DHT22;69034;49.444;7.758;2023-04-25T20:07:52;14.70;39.60
79571;DHT22;69034;49.444;7.758;2023-04-25T20:11:53;14.60;40.30
79571;DHT22;69034;49.444;7.758;2023-04-25T20:15:53;14.70;40.00
79571;DHT22;69034;49.444;7.758;2023-04-25T20:19:54;14.50;40.20
79571;DHT22;69034;49.444;7.758;2023-04-25T20:23:55;14.40;40.40
79571;DHT22;69034;49.444;7.758;2023-04-25T20:27:56;14.30;40.70
79571;DHT22;69034;49.444;7.758;2023-04-25T20:31:57;14.10;40.80
79571;DHT22;69034;49.444;7.758;2023-04-25T20:35:58;14.00;41.00
79571;DHT22;69034;49.444;7.758;2023-04-25T20:40:00;13.90;41.10
79571;DHT22;69034;49.444;7.758;2023-04-25T20:44:01;13.80;41.30
79571;DHT22;69034;49.444;7.758;2023-04-25T20:48:02;13.70;41.30
79571;DHT22;69034;49.444;7.758;2023-04-25T20:52:04;13.70;41.40
79571;DHT22;69034;49.444;7.758;2023-04-25T20:56:05;13.60;41.60
79571;DHT22;69034;49.444;7.758;2023-04-25T21:00:06;13.60;43.50
79571;DHT22;69034;49.444;7.758;2023-04-25T21:04:26;13.90;42.80
79571;DHT22;69034;49.444;7.758;2023-04-25T21:08:27;13.80;43.00
79571;DHT22;69034;49.444;7.758;2023-04-25T21:12:27;13.60;43.20
79571;DHT22;69034;49.444;7.758;2023-04-25T21:16:28;13.40;43.30
79571;DHT22;69034;49.444;7.758;2023-04-25T21:20:32;13.30;43.50
79571;DHT22;69034;49.444;7.758;2023-04-25T21:24:32;13.20;43.50
79571;DHT22;69034;49.444;7.758;2023-04-25T21:28:33;13.20;44.10
79571;DHT22;69034;49.444;7.758;2023-04-25T21:32:34;13.20;44.00
79571;DHT22;69034;49.444;7.758;2023-04-25T21:36:35;13.10;44.00
79571;DHT22;69034;49.444;7.758;2023-04-25T21:40:36;13.00;44.00
79571;DHT22;69034;49.444;7.758;2023-04-25T21:44:37;12.90;44.10
79571;DHT22;69034;49.444;7.758;2023-04-25T21:48:37;12.70;44.20
79571;DHT22;69034;49.444;7.758;2023-04-25T21:52:38;12.60;44.30
79571;DHT22;69034;49.444;7.758;2023-04-25T21:56:38;12.60;44.70
79571;DHT22;69034;49.444;7.758;2023-04-25T22:00:39;12.60;44.90
79571;DHT22;69034;49.444;7.758;2023-04-25T22:04:41;12.60;45.10
79571;DHT22;69034;49.444;7.758;2023-04-25T22:08:43;12.60;45.20
79571;DHT22;69034;49.444;7.758;2023-04-25T22:12:43;12.60;45.20
79571;DHT22;69034;49.444;7.758;2023-04-25T22:16:44;12.60;45.30
79571;DHT22;69034;49.444;7.758;2023-04-25T22:20:45;12.50;45.50
79571;DHT22;69034;49.444;7.758;2023-04-25T22:24:45;12.40;45.60
79571;DHT22;69034;49.444;7.758;2023-04-25T22:28:49;12.30;45.60
79571;DHT22;69034;49.444;7.758;2023-04-25T22:32:50;12.20;45.70
79571;DHT22;69034;49.444;7.758;2023-04-25T22:36:51;12.00;45.60
79571;DHT22;69034;49.444;7.758;2023-04-25T22:40:52;11.90;45.70
79571;DHT22;69034;49.444;7.758;2023-04-25T22:44:53;11.70;45.80
79571;DHT22;69034;49.444;7.758;2023-04-25T22:48:53;11.60;45.90
79571;DHT22;69034;49.444;7.758;2023-04-25T22:52:54;11.50;45.90
79571;DHT22;69034;49.444;7.758;2023-04-25T22:56:55;11.40;46.00
79571;DHT22;69034;49.444;7.758;2023-04-25T23:00:57;11.30;46.20
79571;DHT22;69034;49.444;7.758;2023-04-25T23:04:58;11.20;46.20
79571;DHT22;69034;49.444;7.758;2023-04-25T23:08:59;11.00;46.20
79571;DHT22;69034;49.444;7.758;2023-04-25T23:12:59;10.90;46.30
79571;DHT22;69034;49.444;7.758;2023-04-25T23:17:00;10.80;46.50
79571;DHT22;69034;49.444;7.758;2023-04-25T23:21:01;10.70;46.60
79571;DHT22;69034;49.444;7.758;2023-04-25T23:25:04;10.60;46.70
79571;DHT22;69034;49.444;7.758;2023-04-25T23:29:06;10.50;46.70
79571;DHT22;69034;49.444;7.758;2023-04-25T23:33:07;10.50;46.70
79571;DHT22;69034;49.444;7.758;2023-04-25T23:37:08;10.40;46.80
79571;DHT22;69034;49.444;7.758;2023-04-25T23:41:09;10.30;47.00
79571;DHT22;69034;49.444;7.758;2023-04-25T23:45:10;10.20;47.00
79571;DHT22;69034;49.444;7.758;2023-04-25T23:49:11;10.10;47.10
79571;DHT22;69034;49.444;7.758;2023-04-25T23:53:12;10.10;47.20
79571;DHT22;69034;49.444;7.758;2023-04-25T23:57:13;10.00;47.30
